createdAt,value
2023-01-24T00:00:15.459Z,14.98
2023-01-24T00:02:41.742Z,15.07
2023-01-24T00:05:08.177Z,13.90
2023-01-24T00:07:34.447Z,14.60
2023-01-24T00:10:00.692Z,15.43
2023-01-24T00:12:26.975Z,14.63
2023-01-24T00:14:54.073Z,14.10
2023-01-24T00:17:20.498Z,13.70
2023-01-24T00:19:46.759Z,13.45
2023-01-24T00:22:13.039Z,13.32
2023-01-24T00:24:39.293Z,13.95
2023-01-24T00:27:05.605Z,14.13
2023-01-24T00:29:31.946Z,14.02
2023-01-24T00:31:58.320Z,14.40
2023-01-24T00:34:24.688Z,14.70
2023-01-24T00:36:50.987Z,13.20
2023-01-24T00:39:17.480Z,13.57
2023-01-24T00:41:43.747Z,12.77
2023-01-24T00:44:10.521Z,12.82
2023-01-24T00:46:36.800Z,12.38
2023-01-24T00:49:03.058Z,13.98
2023-01-24T00:51:29.520Z,13.75
2023-01-24T00:53:55.797Z,13.00
2023-01-24T00:56:22.109Z,14.40
2023-01-24T00:58:48.424Z,12.50
2023-01-24T01:01:14.665Z,13.18
2023-01-24T01:03:40.914Z,12.77
2023-01-24T01:06:10.356Z,13.90
2023-01-24T01:08:36.898Z,13.93
2023-01-24T01:11:03.323Z,12.88
2023-01-24T01:13:29.670Z,12.45
2023-01-24T01:16:10.363Z,12.80
2023-01-24T01:18:36.733Z,13.15
2023-01-24T01:21:03.490Z,12.48
2023-01-24T01:23:29.936Z,13.77
2023-01-24T01:26:00.355Z,13.25
2023-01-24T01:28:28.209Z,12.50
2023-01-24T01:30:54.737Z,12.70
2023-01-24T01:33:21.586Z,12.63
2023-01-24T01:35:48.891Z,14.25
2023-01-24T01:38:15.197Z,12.43
2023-01-24T01:40:41.572Z,13.98
2023-01-24T01:43:12.781Z,13.23
2023-01-24T01:45:49.330Z,13.00
2023-01-24T01:48:18.531Z,12.15
2023-01-24T01:50:47.058Z,13.65
2023-01-24T01:53:15.380Z,12.82
2023-01-24T01:55:42.896Z,12.82
2023-01-24T01:58:09.355Z,12.63
2023-01-24T02:00:36.018Z,12.77
2023-01-24T02:03:29.301Z,13.20
2023-01-24T02:05:55.673Z,12.93
2023-01-24T02:08:23.227Z,12.50
2023-01-24T02:11:09.097Z,12.55
2023-01-24T02:13:36.245Z,12.30
2023-01-24T02:16:05.696Z,12.50
2023-01-24T02:18:35.112Z,12.57
2023-01-24T02:21:03.693Z,12.07
2023-01-24T02:23:37.211Z,12.77
2023-01-24T02:26:22.048Z,14.68
2023-01-24T02:29:00.415Z,10.38
2023-01-24T02:31:27.143Z,11.43
2023-01-24T02:33:53.422Z,13.20
2023-01-24T02:36:31.386Z,12.70
2023-01-24T02:38:58.166Z,12.05
2023-01-24T02:41:27.369Z,11.73
2023-01-24T02:43:55.605Z,12.73
2023-01-24T02:46:21.850Z,13.48
2023-01-24T02:48:50.732Z,12.65
2023-01-24T02:51:35.789Z,12.18
2023-01-24T02:54:02.125Z,11.87
2023-01-24T02:56:47.152Z,13.75
2023-01-24T02:59:13.396Z,12.43
2023-01-24T03:01:39.754Z,11.93
2023-01-24T03:04:06.056Z,12.80
2023-01-24T03:06:33.252Z,12.60
2023-01-24T03:08:59.548Z,13.10
2023-01-24T03:11:32.936Z,11.38
2023-01-24T03:14:17.782Z,11.82
2023-01-24T03:17:02.891Z,12.85
2023-01-24T03:19:48.453Z,13.98
2023-01-24T03:22:33.633Z,12.48
2023-01-24T03:25:18.465Z,12.27
2023-01-24T03:28:03.301Z,11.63
2023-01-24T03:30:51.128Z,12.30
2023-01-24T03:33:36.256Z,11.75
2023-01-24T03:36:07.354Z,11.05
2023-01-24T03:38:54.055Z,11.20
2023-01-24T03:41:21.964Z,11.98
2023-01-24T03:43:48.690Z,12.40
2023-01-24T03:46:15.060Z,13.32
2023-01-24T03:48:51.608Z,13.85
2023-01-24T03:51:40.722Z,12.48
2023-01-24T03:54:07.713Z,11.07
2023-01-24T03:56:44.937Z,12.48
2023-01-24T03:59:11.374Z,11.95
2023-01-24T04:01:39.729Z,11.38
2023-01-24T04:04:12.307Z,12.32
2023-01-24T04:06:38.868Z,11.32
2023-01-24T04:09:09.469Z,11.50
2023-01-24T04:11:37.311Z,10.82
2023-01-24T04:14:12.681Z,9.32
2023-01-24T04:16:52.080Z,9.57
2023-01-24T04:19:26.223Z,8.07
2023-01-24T04:21:52.557Z,7.45
2023-01-24T04:24:19.290Z,4.70
2023-01-24T04:26:45.946Z,5.72
2023-01-24T04:29:18.681Z,4.95
2023-01-24T04:31:48.588Z,6.70
2023-01-24T04:34:21.030Z,8.80
2023-01-24T04:36:47.332Z,9.30
2023-01-24T04:39:13.616Z,9.70
2023-01-24T04:41:50.840Z,10.32
2023-01-24T04:44:17.296Z,9.45
2023-01-24T04:46:44.110Z,9.85
2023-01-24T04:49:11.139Z,9.88
2023-01-24T04:51:43.659Z,9.50
2023-01-24T04:54:14.578Z,9.82
2023-01-24T04:56:41.430Z,9.52
2023-01-24T04:59:07.852Z,10.45
2023-01-24T05:01:35.465Z,10.75
2023-01-24T05:04:09.623Z,10.15
2023-01-24T05:06:36.257Z,9.75
2023-01-24T05:09:04.104Z,10.45
2023-01-24T05:11:39.471Z,9.30
2023-01-24T05:14:08.454Z,8.40
2023-01-24T05:16:35.417Z,6.13
2023-01-24T05:19:01.755Z,7.50
2023-01-24T05:21:28.148Z,6.68
2023-01-24T05:23:54.716Z,6.47
2023-01-24T05:26:24.631Z,4.88
2023-01-24T05:28:52.362Z,6.03
2023-01-24T05:31:19.540Z,4.43
2023-01-24T05:33:45.890Z,4.03
2023-01-24T05:36:13.713Z,4.35
2023-01-24T05:38:42.157Z,4.45
2023-01-24T05:41:10.764Z,4.57
2023-01-24T05:43:38.495Z,4.20
2023-01-24T05:46:06.366Z,4.65
2023-01-24T05:48:37.260Z,4.80
2023-01-24T05:51:07.832Z,4.65
2023-01-24T05:53:35.313Z,5.65
2023-01-24T05:56:03.126Z,5.10
2023-01-24T05:58:33.270Z,5.72
2023-01-24T06:01:07.101Z,6.50
2023-01-24T06:03:43.883Z,5.32
2023-01-24T06:06:23.202Z,5.30
2023-01-24T06:08:49.789Z,4.78
2023-01-24T06:11:18.077Z,5.75
2023-01-24T06:13:45.906Z,5.65
2023-01-24T06:16:13.626Z,6.07
2023-01-24T06:18:40.747Z,5.90
2023-01-24T06:21:08.940Z,5.40
2023-01-24T06:23:35.369Z,4.72
2023-01-24T06:26:04.792Z,4.93
2023-01-24T06:28:31.285Z,5.15
2023-01-24T06:31:03.883Z,6.00
2023-01-24T06:33:48.881Z,5.35
2023-01-24T06:36:20.986Z,5.53
2023-01-24T06:38:47.477Z,4.63
2023-01-24T06:41:17.570Z,6.00
2023-01-24T06:43:44.517Z,4.65
2023-01-24T06:46:11.860Z,5.30
2023-01-24T06:48:38.502Z,4.60
2023-01-24T06:51:05.432Z,4.35
2023-01-24T06:53:33.049Z,5.00
2023-01-24T06:56:00.139Z,4.55
2023-01-24T06:58:26.623Z,5.70
2023-01-24T07:00:53.903Z,5.53
2023-01-24T07:03:21.634Z,5.90
2023-01-24T07:05:48.224Z,5.25
2023-01-24T07:08:16.750Z,5.90
2023-01-24T07:10:46.836Z,5.88
2023-01-24T07:13:13.205Z,5.53
2023-01-24T07:15:39.552Z,6.50
2023-01-24T07:18:09.247Z,6.90
2023-01-24T07:20:35.725Z,6.85
2023-01-24T07:23:02.127Z,6.95
2023-01-24T07:25:29.300Z,6.20
2023-01-24T07:27:55.687Z,5.75
2023-01-24T07:30:22.079Z,6.03
2023-01-24T07:32:48.337Z,7.05
2023-01-24T07:35:14.667Z,6.43
2023-01-24T07:37:40.997Z,6.10
2023-01-24T07:40:07.447Z,6.65
2023-01-24T07:42:33.744Z,6.10
2023-01-24T07:45:00.357Z,6.50
2023-01-24T07:47:27.500Z,6.70
2023-01-24T07:49:53.825Z,7.30
2023-01-24T07:52:20.125Z,6.88
2023-01-24T07:54:46.380Z,6.35
2023-01-24T07:57:12.730Z,6.93
2023-01-24T07:59:39.610Z,6.72
2023-01-24T08:02:06.407Z,6.25
2023-01-24T08:04:34.020Z,6.38
2023-01-24T08:07:20.980Z,5.80
2023-01-24T08:09:47.846Z,5.63
2023-01-24T08:12:14.800Z,6.03
2023-01-24T08:14:41.138Z,5.88
2023-01-24T08:17:07.468Z,6.13
2023-01-24T08:19:54.748Z,6.47
2023-01-24T08:22:20.105Z,6.18
2023-01-24T08:24:46.382Z,7.18
2023-01-24T08:27:12.667Z,6.20
2023-01-24T08:29:38.994Z,7.18
2023-01-24T08:32:05.479Z,6.65
2023-01-24T08:34:31.850Z,6.10
2023-01-24T08:36:59.158Z,7.43
2023-01-24T08:39:29.301Z,7.35
2023-01-24T08:41:55.809Z,7.07
2023-01-24T08:44:22.376Z,6.78
2023-01-24T08:46:48.739Z,7.00
2023-01-24T08:49:15.015Z,5.80
2023-01-24T08:51:41.341Z,6.88
2023-01-24T08:54:08.679Z,6.22
2023-01-24T08:56:35.181Z,5.88
2023-01-24T08:59:01.502Z,5.95
2023-01-24T09:01:27.964Z,6.90
2023-01-24T09:03:57.820Z,6.07
2023-01-24T09:06:24.472Z,6.47
2023-01-24T09:08:52.373Z,5.90
2023-01-24T09:11:18.723Z,6.40
2023-01-24T09:13:44.994Z,6.57
2023-01-24T09:16:11.290Z,6.78
2023-01-24T09:18:37.595Z,7.28
2023-01-24T09:21:04.558Z,6.45
2023-01-24T09:23:31.173Z,6.55
2023-01-24T09:25:57.507Z,6.30
2023-01-24T09:28:23.762Z,5.68
2023-01-24T09:30:50.501Z,6.03
2023-01-24T09:33:18.104Z,6.53
2023-01-24T09:35:58.289Z,5.93
2023-01-24T09:38:25.993Z,5.78
2023-01-24T09:40:57.108Z,5.70
2023-01-24T09:43:39.302Z,5.30
2023-01-24T09:46:12.231Z,6.00
2023-01-24T09:48:38.813Z,5.53
2023-01-24T09:51:07.476Z,6.57
2023-01-24T09:53:38.556Z,6.15
2023-01-24T09:56:05.537Z,6.60
2023-01-24T09:58:36.746Z,6.82
2023-01-24T10:01:10.389Z,6.40
2023-01-24T10:03:37.631Z,6.63
2023-01-24T10:06:15.204Z,6.82
2023-01-24T10:08:56.649Z,6.75
2023-01-24T10:11:22.958Z,6.22
2023-01-24T10:13:55.559Z,5.78
2023-01-24T10:16:33.943Z,7.10
2023-01-24T10:19:20.528Z,5.82
2023-01-24T10:21:46.826Z,5.78
2023-01-24T10:24:19.718Z,5.85
2023-01-24T10:26:49.744Z,5.72
2023-01-24T10:29:18.366Z,5.50
2023-01-24T10:31:50.407Z,5.85
2023-01-24T10:34:19.665Z,6.07
2023-01-24T10:36:49.073Z,5.93
2023-01-24T10:39:15.445Z,5.70
2023-01-24T10:41:41.795Z,5.78
2023-01-24T10:44:27.375Z,5.72
2023-01-24T10:47:09.450Z,5.00
2023-01-24T10:49:37.243Z,6.40
2023-01-24T10:52:11.349Z,6.35
2023-01-24T10:54:43.009Z,6.20
2023-01-24T10:57:20.484Z,5.18
2023-01-24T10:59:47.426Z,5.88
2023-01-24T11:02:24.100Z,5.32
2023-01-24T11:04:58.855Z,5.97
2023-01-24T11:07:39.958Z,6.47
2023-01-24T11:10:20.229Z,5.82
2023-01-24T11:12:51.275Z,6.90
2023-01-24T11:15:20.651Z,7.00
2023-01-24T11:17:47.170Z,6.80
2023-01-24T11:20:32.692Z,6.20
2023-01-24T11:23:18.749Z,6.43
2023-01-24T11:28:23.373Z,5.72
2023-01-24T11:30:50.100Z,6.00
2023-01-24T11:33:35.314Z,7.22
2023-01-24T11:36:12.210Z,6.55
2023-01-24T11:38:43.407Z,6.97
2023-01-24T11:41:16.402Z,7.57
2023-01-24T11:43:49.911Z,6.72
2023-01-24T11:46:28.526Z,6.35
2023-01-24T11:48:59.851Z,7.03
2023-01-24T11:51:43.138Z,8.88
2023-01-24T11:54:14.074Z,7.28
2023-01-24T11:56:56.533Z,7.07
2023-01-24T11:59:22.950Z,7.78
2023-01-24T12:01:53.582Z,8.13
2023-01-24T12:04:22.859Z,6.88
2023-01-24T12:07:12.300Z,5.88
2023-01-24T12:10:02.326Z,6.47
2023-01-24T12:12:36.665Z,8.27
2023-01-24T12:15:13.228Z,7.70
2023-01-24T12:17:57.189Z,6.65
2023-01-24T12:20:31.253Z,6.57
2023-01-24T12:23:16.707Z,7.40
2023-01-24T12:25:45.452Z,7.60
2023-01-24T12:28:18.177Z,7.10
2023-01-24T12:30:48.578Z,6.97
2023-01-24T12:33:28.185Z,7.60
2023-01-24T12:35:56.954Z,7.25
2023-01-24T12:38:28.934Z,6.38
2023-01-24T12:40:58.476Z,7.18
2023-01-24T12:43:46.830Z,8.07
2023-01-24T12:46:17.051Z,7.68
2023-01-24T12:48:47.944Z,7.65
2023-01-24T12:51:23.413Z,7.60
2023-01-24T12:54:02.895Z,7.00
2023-01-24T12:56:33.515Z,7.47
2023-01-24T12:58:59.959Z,8.23
2023-01-24T13:01:35.478Z,7.80
2023-01-24T13:04:23.108Z,6.65
2023-01-24T13:06:49.498Z,7.30
2023-01-24T13:09:15.868Z,28.42
2023-01-24T13:11:46.105Z,8.25
2023-01-24T13:14:30.184Z,7.63
2023-01-24T13:17:16.781Z,7.32
2023-01-24T13:19:57.525Z,6.88
2023-01-24T13:22:41.871Z,7.07
2023-01-24T13:25:17.466Z,7.25
2023-01-24T13:32:39.408Z,6.90
2023-01-24T13:35:25.494Z,6.90
2023-01-24T13:40:18.080Z,7.35
2023-01-24T13:42:44.479Z,8.07
2023-01-24T13:45:32.109Z,8.07
2023-01-24T13:47:59.332Z,7.03
2023-01-24T13:50:26.933Z,7.65
2023-01-24T13:53:11.419Z,7.13
2023-01-24T13:55:40.774Z,8.10
2023-01-24T13:58:07.037Z,7.35
2023-01-24T14:00:34.378Z,7.50
2023-01-24T14:03:05.482Z,7.20
2023-01-24T14:05:42.815Z,6.85
2023-01-24T14:08:15.202Z,7.22
2023-01-24T14:10:46.789Z,8.32
2023-01-24T14:13:31.871Z,8.85
2023-01-24T14:15:58.233Z,8.90
2023-01-24T14:18:42.346Z,7.35
2023-01-24T14:21:16.420Z,7.75
2023-01-24T14:23:42.726Z,7.78
2023-01-24T14:26:14.843Z,7.70
2023-01-24T14:28:43.270Z,7.20
2023-01-24T14:31:20.467Z,7.55
2023-01-24T14:34:08.018Z,7.40
2023-01-24T14:36:38.830Z,8.35
2023-01-24T14:39:11.758Z,8.52
2023-01-24T14:41:40.108Z,7.20
2023-01-24T14:44:17.268Z,8.60
2023-01-24T14:46:51.466Z,7.40
2023-01-24T14:49:25.761Z,8.15
2023-01-24T14:51:51.987Z,8.40
2023-01-24T14:54:22.029Z,8.27
2023-01-24T14:56:48.345Z,8.18
2023-01-24T14:59:16.909Z,7.95
2023-01-24T15:01:43.314Z,8.20
2023-01-24T15:04:23.170Z,8.88
2023-01-24T15:07:06.123Z,8.20
2023-01-24T15:09:32.399Z,8.52
2023-01-24T15:12:11.135Z,7.57
2023-01-24T15:14:37.808Z,8.48
2023-01-24T15:17:04.100Z,8.98
2023-01-24T15:19:32.519Z,8.38
2023-01-24T15:21:58.861Z,8.80
2023-01-24T15:24:26.171Z,9.00
2023-01-24T15:26:52.916Z,8.57
2023-01-24T15:29:38.756Z,8.68
2023-01-24T15:32:23.400Z,8.77
2023-01-24T15:34:49.790Z,9.88
2023-01-24T15:37:16.146Z,9.45
2023-01-24T15:39:43.010Z,9.45
2023-01-24T15:42:33.803Z,10.10
2023-01-24T15:45:00.441Z,9.32
2023-01-24T15:47:45.152Z,9.63
2023-01-24T15:50:34.773Z,9.77
2023-01-24T15:53:23.572Z,9.57
2023-01-24T15:55:50.476Z,8.68
2023-01-24T15:58:16.716Z,9.60
2023-01-24T16:00:50.408Z,10.27
2023-01-24T16:03:16.649Z,9.90
2023-01-24T16:05:42.931Z,9.05
2023-01-24T16:08:09.494Z,10.38
2023-01-24T16:10:36.173Z,10.23
2023-01-24T16:13:02.842Z,9.68
2023-01-24T16:15:29.112Z,11.00
2023-01-24T16:17:55.392Z,10.73
2023-01-24T16:20:22.825Z,11.23
2023-01-24T16:22:49.262Z,10.88
2023-01-24T16:25:16.039Z,10.07
2023-01-24T16:27:42.364Z,10.63
2023-01-24T16:30:26.942Z,10.82
2023-01-24T16:32:53.598Z,9.93
2023-01-24T16:35:19.858Z,9.98
2023-01-24T16:37:46.225Z,11.55
2023-01-24T16:40:13.504Z,11.75
2023-01-24T16:42:41.366Z,10.52
2023-01-24T16:45:11.788Z,11.45
2023-01-24T16:47:38.801Z,11.50
2023-01-24T16:50:05.704Z,10.40
2023-01-24T16:52:32.250Z,12.50
2023-01-24T16:54:58.526Z,12.20
2023-01-24T16:57:24.776Z,11.60
2023-01-24T16:59:51.023Z,12.50
2023-01-24T17:02:17.475Z,12.93
2023-01-24T17:04:43.819Z,12.07
2023-01-24T17:07:10.168Z,11.77
2023-01-24T17:09:36.411Z,12.45
2023-01-24T17:12:13.758Z,13.93
2023-01-24T17:14:41.520Z,12.35
2023-01-24T17:17:07.992Z,12.60
2023-01-24T17:19:35.245Z,13.40
2023-01-24T17:22:01.517Z,13.80
2023-01-24T17:24:28.024Z,13.02
2023-01-24T17:26:54.322Z,13.45
2023-01-24T17:29:24.345Z,12.93
2023-01-24T17:31:50.730Z,13.73
2023-01-24T17:34:17.026Z,13.48
2023-01-24T17:36:43.333Z,13.65
2023-01-24T17:39:09.672Z,13.65
2023-01-24T17:41:36.040Z,15.00
2023-01-24T17:44:02.327Z,14.52
2023-01-24T17:46:28.644Z,13.20
2023-01-24T17:48:55.201Z,12.63
2023-01-24T17:51:21.477Z,14.15
2023-01-24T17:53:48.051Z,14.43
2023-01-24T17:56:15.127Z,14.27
2023-01-24T17:58:41.558Z,14.57
2023-01-24T18:01:08.594Z,14.82
2023-01-24T18:03:34.938Z,15.02
2023-01-24T18:06:02.090Z,15.68
2023-01-24T18:08:28.610Z,14.93
2023-01-24T18:10:55.267Z,14.65
2023-01-24T18:13:21.727Z,13.73
2023-01-24T18:15:48.099Z,13.35
2023-01-24T18:18:14.629Z,14.68
2023-01-24T18:20:41.838Z,12.60
2023-01-24T18:23:08.331Z,13.70
2023-01-24T18:25:36.273Z,14.00
2023-01-24T18:28:03.888Z,15.55
2023-01-24T18:30:30.295Z,15.27
2023-01-24T18:32:56.931Z,13.57
2023-01-24T18:35:23.244Z,15.38
2023-01-24T18:37:49.538Z,16.08
2023-01-24T18:40:15.930Z,15.20
2023-01-24T18:42:42.391Z,15.25
2023-01-24T18:45:09.052Z,15.85
2023-01-24T18:47:35.407Z,18.63
2023-01-24T18:50:01.751Z,16.90
2023-01-24T18:52:28.094Z,16.42
2023-01-24T18:54:55.453Z,17.77
2023-01-24T18:57:21.959Z,16.60
2023-01-24T18:59:48.290Z,18.55
2023-01-24T19:02:14.689Z,17.45
2023-01-24T19:04:41.005Z,16.92
2023-01-24T19:07:07.517Z,18.15
2023-01-24T19:09:33.838Z,18.00
2023-01-24T19:12:00.142Z,16.13
2023-01-24T19:14:29.367Z,15.38
2023-01-24T19:16:55.639Z,15.88
2023-01-24T19:19:25.955Z,14.73
2023-01-24T19:21:52.657Z,15.48
2023-01-24T19:24:19.414Z,16.65
2023-01-24T19:26:45.713Z,16.45
2023-01-24T19:29:11.977Z,16.55
2023-01-24T19:31:38.735Z,15.23
2023-01-24T19:34:05.537Z,14.45
2023-01-24T19:36:31.941Z,16.30
2023-01-24T19:38:59.005Z,16.08
2023-01-24T19:41:26.246Z,15.48
2023-01-24T19:44:18.482Z,15.93
2023-01-24T19:46:39.324Z,17.13
2023-01-24T19:49:05.587Z,17.67
2023-01-24T19:51:31.969Z,17.45
2023-01-24T19:53:58.305Z,15.77
2023-01-24T19:56:24.672Z,17.48
2023-01-24T19:58:54.436Z,16.50
2023-01-24T20:01:21.451Z,16.52
2023-01-24T20:03:48.110Z,17.10
2023-01-24T20:06:15.990Z,17.33
2023-01-24T20:08:46.258Z,16.38
2023-01-24T20:11:12.959Z,15.65
2023-01-24T20:13:39.495Z,16.00
2023-01-24T20:16:13.720Z,15.20
2023-01-24T20:18:40.162Z,15.73
2023-01-24T20:21:06.442Z,14.30
2023-01-24T20:23:32.800Z,16.23
2023-01-24T20:26:03.673Z,15.65
2023-01-24T20:28:30.139Z,16.27
2023-01-24T20:31:01.141Z,17.52
2023-01-24T20:33:27.562Z,16.85
2023-01-24T20:36:03.210Z,16.40
2023-01-24T20:41:09.303Z,16.33
2023-01-24T20:43:36.605Z,16.40
2023-01-24T20:46:04.052Z,17.70
2023-01-24T20:48:30.916Z,16.83
2023-01-24T20:50:57.957Z,19.20
2023-01-24T20:53:24.442Z,17.63
2023-01-24T20:55:58.554Z,18.73
2023-01-24T20:58:25.412Z,17.75
2023-01-24T21:00:52.379Z,34.88
2023-01-24T21:03:19.601Z,20.02
2023-01-24T21:05:45.928Z,17.40
2023-01-24T21:08:12.286Z,17.42
2023-01-24T21:10:38.692Z,18.58
2023-01-24T21:13:05.099Z,17.63
2023-01-24T21:15:31.578Z,18.08
2023-01-24T21:17:57.982Z,16.08
2023-01-24T21:20:25.065Z,17.92
2023-01-24T21:22:51.819Z,18.70
2023-01-24T21:25:18.190Z,18.17
2023-01-24T21:27:48.663Z,15.05
2023-01-24T21:30:15.110Z,17.50
2023-01-24T21:32:41.367Z,18.60
2023-01-24T21:35:08.515Z,15.60
2023-01-24T21:37:35.022Z,15.80
2023-01-24T21:40:01.335Z,15.80
2023-01-24T21:42:28.029Z,13.50
2023-01-24T21:44:54.386Z,16.48
2023-01-24T21:47:20.691Z,14.52
2023-01-24T21:49:46.989Z,15.23
2023-01-24T21:52:13.874Z,16.58
2023-01-24T21:54:40.229Z,15.88
2023-01-24T21:57:32.019Z,15.80
2023-01-24T21:59:59.572Z,16.30
2023-01-24T22:02:27.270Z,16.60
2023-01-24T22:04:54.427Z,15.93
2023-01-24T22:07:22.592Z,15.90
2023-01-24T22:09:49.451Z,17.02
2023-01-24T22:12:15.882Z,15.70
2023-01-24T22:14:42.652Z,17.00
2023-01-24T22:17:12.676Z,16.25
2023-01-24T22:19:40.728Z,16.45
2023-01-24T22:22:07.159Z,16.25
2023-01-24T22:24:42.811Z,17.17
2023-01-24T22:27:12.006Z,15.88
2023-01-24T22:29:38.496Z,14.88
2023-01-24T22:32:05.617Z,12.90
2023-01-24T22:34:32.167Z,14.43
2023-01-24T22:37:02.134Z,12.77
2023-01-24T22:39:28.549Z,13.35
2023-01-24T22:41:54.816Z,14.55
2023-01-24T22:44:21.145Z,12.88
2023-01-24T22:46:47.629Z,15.50
2023-01-24T22:49:14.019Z,16.58
2023-01-24T22:51:40.272Z,16.17
2023-01-24T22:54:06.660Z,16.25
2023-01-24T22:56:32.953Z,17.50
2023-01-24T22:58:59.281Z,15.98
2023-01-24T23:01:25.552Z,14.93
2023-01-24T23:03:51.791Z,15.98
2023-01-24T23:06:18.141Z,15.90
2023-01-24T23:08:44.637Z,16.45
2023-01-24T23:11:12.312Z,15.45
2023-01-24T23:13:57.468Z,17.33
2023-01-24T23:16:28.937Z,15.60
2023-01-24T23:19:13.959Z,17.20
2023-01-24T23:21:40.224Z,15.98
2023-01-24T23:24:06.710Z,15.73
2023-01-24T23:26:33.042Z,16.35
2023-01-24T23:29:25.213Z,14.77
2023-01-24T23:31:53.095Z,13.77
2023-01-24T23:34:31.018Z,15.00
2023-01-24T23:36:57.595Z,14.45
2023-01-24T23:39:23.890Z,15.25
2023-01-24T23:41:50.186Z,14.40
2023-01-24T23:44:16.454Z,15.93
2023-01-24T23:46:42.802Z,15.70
2023-01-24T23:49:09.200Z,15.45
2023-01-24T23:51:35.493Z,15.05
2023-01-24T23:54:01.779Z,15.52
2023-01-24T23:56:28.088Z,12.80
2023-01-24T23:58:54.355Z,13.80
